CST,Max TemperatureF,Mean TemperatureF,Min TemperatureF,Max Dew PointF,MeanDew PointF,Min DewpointF,Max Humidity, Mean Humidity, Min Humidity, Max Sea Level PressureIn, Mean Sea Level PressureIn, Min Sea Level PressureIn, Max VisibilityMiles, Mean VisibilityMiles, Min VisibilityMiles, Max Wind SpeedMPH, Mean Wind SpeedMPH, Max Gust SpeedMPH,PrecipitationIn, CloudCover, Events, WindDirDegrees
2013-1-1,47,44,40,46,42,37,100,91,82,30.22,30.12,30.01,10,9,5,14,5,16,0.19,8,Rain,354
2013-1-2,40,37,34,39,36,34,100,90,79,30.32,30.25,30.20,10,8,5,8,3,9,0.00,7,,353
2013-1-3,47,38,28,34,31,27,100,77,53,30.46,30.38,30.31,10,7,0,12,3,16,0.00,2,Fog,335
2013-1-4,51,40,28,35,31,27,100,69,38,30.54,30.45,30.39,10,10,7,12,1,15,0.00,4,,321
2013-1-5,46,39,31,40,37,30,100,92,83,30.41,30.33,30.29,10,8,2,9,3,13,0.08,6,Rain,167
2013-1-6,56,43,29,40,33,28,100,69,38,30.37,30.32,30.29,10,5,0,10,2,24,0.00,2,Fog,315
2013-1-7,53,41,28,35,30,26,92,67,41,30.43,30.31,30.21,10,9,6,9,2,12,0.00,0,,61
2013-1-8,54,45,35,52,44,34,96,84,71,30.21,30.13,30.07,10,10,7,16,4,21,0.09,7,Rain,79
2013-1-9,58,55,52,56,53,52,100,97,93,30.23,30.17,30.12,10,4,1,17,9,23,0.67,8,Rain,40
2013-1-10,64,59,54,61,58,50,100,92,84,30.10,30.01,29.90,10,9,2,20,8,29,0.22,6,Rain,155
2013-1-11,68,55,42,57,48,43,100,76,52,30.03,29.98,29.92,10,7,0,14,5,17,0.00,1,Fog,166
2013-1-12,74,67,60,68,64,59,100,84,68,29.93,29.83,29.70,10,7,0,22,10,31,0.63,8,Fog-Rain-Thunderstorm,167
2013-1-13,66,50,34,63,43,32,96,89,82,30.24,29.99,29.72,10,8,1,22,8,31,1.03,7,Rain-Thunderstorm,336
2013-1-14,34,31,28,30,25,22,96,84,72,30.36,30.29,30.24,10,9,3,17,9,25,0.05,6,Rain,15
2013-1-15,32,30,28,30,26,21,92,84,75,30.25,30.18,30.11,10,6,2,15,8,20,0.07,7,Rain,360
2013-1-16,39,35,30,34,31,28,96,86,76,30.22,30.18,30.11,10,9,2,14,3,17,0.00,7,,329
2013-1-17,57,42,27,36,30,23,92,68,43,30.51,30.34,30.21,10,10,10,17,5,20,0.00,1,,321
2013-1-18,55,41,26,33,28,24,92,62,32,30.59,30.48,30.37,10,10,10,9,1,14,0.00,0,,120
2013-1-19,60,44,28,33,29,25,92,59,26,30.36,30.29,30.21,10,10,10,13,3,17,0.00,0,,198
2013-1-20,66,48,30,43,37,28,96,70,43,30.27,30.21,30.14,10,10,10,9,1,12,0.00,0,,3
2013-1-21,49,43,36,37,31,25,100,71,42,30.34,30.26,30.16,10,10,9,17,6,24,0.00,3,,43
2013-1-22,48,41,34,32,25,21,76,59,41,30.41,30.34,30.30,10,10,10,10,4,13,0.00,6,,85
2013-1-23,71,54,36,50,42,31,82,67,51,30.33,30.26,30.19,10,10,10,14,4,20,0.00,3,,206
2013-1-24,54,50,46,52,44,35,96,81,65,30.32,30.24,30.18,10,8,4,15,7,18,0.00,7,,64
2013-1-25,57,49,41,55,44,35,100,83,65,30.24,30.16,30.06,10,7,2,14,5,17,0.03,8,Rain,37
2013-1-26,44,43,41,43,41,39,100,92,83,30.32,30.26,30.22,10,4,1,14,7,17,0.16,8,Rain,59
2013-1-27,71,58,44,59,50,43,100,83,66,30.22,30.16,30.07,10,5,0,13,5,21,0.00,6,Fog,135
2013-1-28,75,69,62,63,61,60,93,79,64,30.15,30.08,30.00,10,10,6,20,10,26,0.01,7,Rain,166
2013-1-29,74,65,55,67,62,52,87,78,68,29.98,29.73,29.54,10,9,2,30,13,40,0.44,7,Rain-Thunderstorm,179
2013-1-30,55,43,31,52,36,27,93,73,53,30.13,29.86,29.64,10,10,10,25,9,35,T,5,,255
2013-1-31,61,45,29,33,28,24,92,59,25,30.32,30.19,30.13,10,10,10,18,6,24,0.00,0,,222